Time;durP1;ratioP1;P1;durP2;ratioP2;P2;SDS_P1;SDS_P2;PMS_P1;PMS_P2;Temp;Humidity;BMP_temperature;BMP_pressure;BME280_temperature;BME280_humidity;BME280_pressure;Samples;Min_cycle;Max_cycle;Signal;HPM_P1;HPM_P2
2024/02/03 00:00:11;;;;;;;;;;;8.60;99.90;;;;;;5043453;28;20239;-77
2024/02/03 00:02:42;;;;;;;;;;;8.60;99.90;;;;;;5029331;28;19955;-76
2024/02/03 00:05:13;;;;;;;;;;;8.60;99.90;;;;;;5006837;28;19920;-77
2024/02/03 00:07:39;;;;;;;;;;;8.60;99.90;;;;;;5017330;28;20265;-77
2024/02/03 00:10:08;;;;;;;;;;;8.70;99.90;;;;;;5045289;28;19913;-77
2024/02/03 00:12:34;;;;;;;;;;;8.60;99.90;;;;;;5029013;28;19913;-77
2024/02/03 00:15:08;;;;;;;;;;;8.70;99.90;;;;;;5023396;28;19916;-77
2024/02/03 00:17:41;;;;;;;;;;;8.70;99.90;;;;;;5034345;28;19924;-77
2024/02/03 00:20:17;;;;;;;;;;;8.80;99.90;;;;;;5020497;28;19947;-76
2024/02/03 00:22:45;;;;;;;;;;;8.80;99.90;;;;;;5041326;28;19924;-77
2024/02/03 00:25:16;;;;;;;;;;;8.90;99.90;;;;;;5018139;28;19932;-76
2024/02/03 00:27:45;;;;;;;;;;;8.80;99.90;;;;;;5029636;28;22636;-78
2024/02/03 00:30:11;;;;;;;;;;;8.90;99.90;;;;;;5034248;28;20183;-77
2024/02/03 00:32:37;;;;;;;;;;;8.90;99.90;;;;;;5022738;28;19917;-78
2024/02/03 00:35:09;;;;;;;;;;;8.80;99.90;;;;;;5012783;28;19953;-77
2024/02/03 00:37:35;;;;;;;;;;;9.00;99.90;;;;;;5028353;28;20404;-77
2024/02/03 00:40:02;;;;;;;;;;;9.00;99.90;;;;;;5015261;28;19998;-77
2024/02/03 00:42:31;;;;;;;;;;;9.00;99.90;;;;;;5022001;28;20352;-77
2024/02/03 00:44:57;;;;;;;;;;;9.00;99.90;;;;;;5017920;28;19928;-76
2024/02/03 00:47:29;;;;;;;;;;;9.10;99.90;;;;;;5060571;28;19927;-77
2024/02/03 00:49:57;;;;;;;;;;;9.10;99.90;;;;;;5018241;28;19956;-76
2024/02/03 00:52:25;;;;;;;;;;;9.10;99.90;;;;;;5038407;28;19917;-76
2024/02/03 00:54:51;;;;;;;;;;;9.10;99.90;;;;;;5030340;28;19929;-77
2024/02/03 00:57:20;;;;;;;;;;;9.10;99.90;;;;;;5028074;28;19916;-78
2024/02/03 00:59:46;;;;;;;;;;;9.10;99.90;;;;;;5031102;28;19917;-77
2024/02/03 01:02:11;;;;;;;;;;;9.10;99.90;;;;;;5038115;28;20264;-76
2024/02/03 01:04:37;;;;;;;;;;;9.10;99.90;;;;;;5034716;28;20321;-77
2024/02/03 01:07:07;;;;;;;;;;;9.10;99.90;;;;;;5043834;28;19928;-77
2024/02/03 01:09:33;;;;;;;;;;;9.20;99.90;;;;;;5019423;28;20364;-76
2024/02/03 01:12:07;;;;;;;;;;;9.20;99.90;;;;;;5042108;28;19917;-76
2024/02/03 01:14:33;;;;;;;;;;;9.20;99.90;;;;;;5028757;28;19928;-76
2024/02/03 01:16:58;;;;;;;;;;;9.30;99.90;;;;;;5031755;28;19917;-76
2024/02/03 01:19:30;;;;;;;;;;;9.30;99.90;;;;;;5016310;28;20269;-76
2024/02/03 01:21:56;;;;;;;;;;;9.30;99.90;;;;;;5042413;28;19933;-76
2024/02/03 01:24:26;;;;;;;;;;;9.30;99.90;;;;;;5037510;28;19921;-77
2024/02/03 01:26:58;;;;;;;;;;;9.30;99.90;;;;;;5035026;28;20012;-77
2024/02/03 01:29:29;;;;;;;;;;;9.30;99.90;;;;;;5028716;28;20271;-76
2024/02/03 01:31:55;;;;;;;;;;;9.30;99.90;;;;;;5027937;28;19916;-77
2024/02/03 01:34:21;;;;;;;;;;;9.30;99.90;;;;;;5036453;28;20416;-76
2024/02/03 01:36:49;;;;;;;;;;;9.30;99.90;;;;;;5047927;28;19917;-77
2024/02/03 01:39:18;;;;;;;;;;;9.30;99.90;;;;;;5039714;28;19943;-77
2024/02/03 01:41:46;;;;;;;;;;;9.40;99.90;;;;;;5045610;28;19916;-77
2024/02/03 01:44:12;;;;;;;;;;;9.40;99.90;;;;;;5035683;28;19928;-76
2024/02/03 01:46:38;;;;;;;;;;;9.40;99.90;;;;;;5048090;28;19921;-76
2024/02/03 01:49:04;;;;;;;;;;;9.40;99.90;;;;;;5031937;28;20249;-77
2024/02/03 01:51:38;;;;;;;;;;;9.40;99.90;;;;;;5035083;28;19921;-77
2024/02/03 01:54:04;;;;;;;;;;;9.40;99.90;;;;;;5035116;28;19921;-76
2024/02/03 01:56:33;;;;;;;;;;;9.40;99.90;;;;;;5030992;28;19949;-77
2024/02/03 01:58:59;;;;;;;;;;;9.40;99.90;;;;;;5023614;28;19917;-76
2024/02/03 02:01:28;;;;;;;;;;;9.50;99.90;;;;;;5055222;28;20363;-77
2024/02/03 02:03:56;;;;;;;;;;;9.40;99.90;;;;;;5015038;28;19916;-76
2024/02/03 02:06:23;;;;;;;;;;;9.40;99.90;;;;;;5034697;28;19964;-76
2024/02/03 02:08:56;;;;;;;;;;;9.40;99.90;;;;;;5043395;28;19917;-76
2024/02/03 02:11:25;;;;;;;;;;;9.50;99.90;;;;;;5059975;28;19967;-76
2024/02/03 02:13:51;;;;;;;;;;;9.50;99.90;;;;;;5049039;28;19917;-76
2024/02/03 02:16:17;;;;;;;;;;;9.50;99.90;;;;;;5036290;28;19928;-76
2024/02/03 02:18:43;;;;;;;;;;;9.40;99.90;;;;;;5042271;28;19931;-76
2024/02/03 02:21:12;;;;;;;;;;;9.50;99.90;;;;;;5041791;28;20329;-76
2024/02/03 02:23:40;;;;;;;;;;;9.60;99.90;;;;;;5047177;28;19916;-76
2024/02/03 02:26:13;;;;;;;;;;;9.40;99.90;;;;;;5035048;28;19916;-76
2024/02/03 02:28:39;;;;;;;;;;;9.50;99.90;;;;;;5051768;28;19920;-76
2024/02/03 02:31:05;;;;;;;;;;;9.50;99.90;;;;;;5038116;28;19913;-76
2024/02/03 02:33:33;;;;;;;;;;;9.50;99.90;;;;;;5046763;28;19913;-76
2024/02/03 02:35:59;;;;;;;;;;;9.40;99.90;;;;;;5045864;28;19982;-76
2024/02/03 02:38:25;;;;;;;;;;;9.50;99.90;;;;;;5014416;28;20223;-76
2024/02/03 02:40:53;;;;;;;;;;;9.50;99.90;;;;;;5040809;28;20626;-76
2024/02/03 02:43:21;;;;;;;;;;;9.50;99.90;;;;;;5013890;28;20202;-76
2024/02/03 02:45:47;;;;;;;;;;;9.50;99.90;;;;;;5019010;28;20034;-76
2024/02/03 02:48:18;;;;;;;;;;;9.50;99.90;;;;;;5041741;28;19956;-76
2024/02/03 02:50:47;;;;;;;;;;;9.50;99.90;;;;;;5035923;28;19923;-76
2024/02/03 02:53:16;;;;;;;;;;;9.50;99.90;;;;;;5030546;28;20363;-77
2024/02/03 02:55:42;;;;;;;;;;;9.50;99.90;;;;;;5019409;28;19917;-77
2024/02/03 02:58:11;;;;;;;;;;;9.50;99.90;;;;;;5024792;28;19917;-77
2024/02/03 03:00:39;;;;;;;;;;;9.50;99.90;;;;;;5032666;28;19990;-77
2024/02/03 03:03:05;;;;;;;;;;;9.50;99.90;;;;;;5032276;28;19927;-76
2024/02/03 03:05:51;;;;;;;;;;;9.50;99.90;;;;;;5035317;28;19921;-76
2024/02/03 03:08:17;;;;;;;;;;;9.50;99.90;;;;;;5021617;28;19917;-76
2024/02/03 03:10:55;;;;;;;;;;;;;;;;;;;;;
2024/02/03 03:13:26;;;;;;;;;;;9.50;99.90;;;;;;5019516;28;19917;-76
2024/02/03 03:15:52;;;;;;;;;;;9.50;99.90;;;;;;5017503;28;20594;-76
2024/02/03 03:18:21;;;;;;;;;;;9.40;99.90;;;;;;5036806;28;19917;-76
2024/02/03 03:20:46;;;;;;;;;;;9.40;99.90;;;;;;5031206;28;19928;-77
2024/02/03 03:23:17;;;;;;;;;;;9.50;99.90;;;;;;5045424;28;19917;-76
2024/02/03 03:25:59;;;;;;;;;;;9.40;99.90;;;;;;5030939;28;19928;-76
2024/02/03 03:28:27;;;;;;;;;;;9.30;99.90;;;;;;5045340;28;19935;-77
2024/02/03 03:30:59;;;;;;;;;;;9.20;99.90;;;;;;5033215;28;19927;-77
2024/02/03 03:33:24;;;;;;;;;;;9.20;99.90;;;;;;5029595;28;20031;-77
2024/02/03 03:35:56;;;;;;;;;;;9.30;99.90;;;;;;5020899;28;19946;-77
2024/02/03 03:38:23;;;;;;;;;;;9.20;99.90;;;;;;5041556;28;20383;-76
2024/02/03 03:40:51;;;;;;;;;;;9.20;99.90;;;;;;5049538;28;19917;-77
2024/02/03 03:43:17;;;;;;;;;;;9.20;99.90;;;;;;5040590;28;19996;-75
2024/02/03 03:45:43;;;;;;;;;;;9.00;99.90;;;;;;5041636;28;19924;-75
2024/02/03 03:48:09;;;;;;;;;;;9.10;99.90;;;;;;5033252;28;20222;-75
2024/02/03 03:50:36;;;;;;;;;;;9.10;99.90;;;;;;5016487;28;19935;-75
2024/02/03 03:53:02;;;;;;;;;;;9.00;99.90;;;;;;5041227;28;20046;-77
2024/02/03 03:55:28;;;;;;;;;;;9.10;99.90;;;;;;5032771;28;20004;-77
2024/02/03 03:57:58;;;;;;;;;;;9.00;99.90;;;;;;5044970;28;19921;-76
2024/02/03 04:00:25;;;;;;;;;;;8.90;99.90;;;;;;5031158;28;20066;-76
2024/02/03 04:03:05;;;;;;;;;;;9.00;99.90;;;;;;5025689;28;19917;-77
2024/02/03 04:05:31;;;;;;;;;;;9.00;99.90;;;;;;5029835;28;19921;-76
2024/02/03 04:07:57;;;;;;;;;;;8.90;99.90;;;;;;5046680;28;19917;-76
2024/02/03 04:10:25;;;;;;;;;;;9.00;99.90;;;;;;5019331;28;20113;-76
2024/02/03 04:12:52;;;;;;;;;;;8.80;99.90;;;;;;5040217;28;20320;-77
2024/02/03 04:15:18;;;;;;;;;;;8.90;99.90;;;;;;5013015;28;19960;-76
2024/02/03 04:17:44;;;;;;;;;;;9.00;99.90;;;;;;5031374;28;20335;-77
2024/02/03 04:20:13;;;;;;;;;;;9.00;99.90;;;;;;5032717;28;20379;-77
2024/02/03 04:22:43;;;;;;;;;;;8.90;99.90;;;;;;5037999;28;19917;-77
2024/02/03 04:25:11;;;;;;;;;;;9.00;99.90;;;;;;5000082;28;19921;-76
2024/02/03 04:27:39;;;;;;;;;;;8.90;99.90;;;;;;5051592;28;19935;-76
2024/02/03 04:30:06;;;;;;;;;;;8.90;99.90;;;;;;5049205;28;20681;-76
2024/02/03 04:32:32;;;;;;;;;;;8.90;99.90;;;;;;5033535;28;19921;-76
2024/02/03 04:34:58;;;;;;;;;;;9.00;99.90;;;;;;5032310;28;19913;-75
2024/02/03 04:37:24;;;;;;;;;;;9.00;99.90;;;;;;5033472;28;19974;-75
2024/02/03 04:39:52;;;;;;;;;;;8.90;99.90;;;;;;5042625;28;19990;-77
2024/02/03 04:42:20;;;;;;;;;;;9.00;99.90;;;;;;5017859;28;19928;-76
2024/02/03 04:44:46;;;;;;;;;;;9.00;99.90;;;;;;5015728;28;19917;-76
2024/02/03 04:47:12;;;;;;;;;;;9.00;99.90;;;;;;5015582;28;19917;-76
2024/02/03 04:49:38;;;;;;;;;;;9.00;99.90;;;;;;5017036;28;20632;-76
2024/02/03 04:52:07;;;;;;;;;;;9.00;99.90;;;;;;5011374;28;19922;-76
2024/02/03 04:54:32;;;;;;;;;;;9.00;99.90;;;;;;4999640;28;19921;-75
2024/02/03 04:57:01;;;;;;;;;;;9.00;99.90;;;;;;5062381;28;19916;-77
2024/02/03 04:59:34;;;;;;;;;;;9.00;99.90;;;;;;5034473;28;19929;-76
2024/02/03 05:02:00;;;;;;;;;;;9.00;99.90;;;;;;5033440;28;19925;-75
2024/02/03 05:04:29;;;;;;;;;;;9.10;99.90;;;;;;5027512;28;20317;-75
2024/02/03 05:06:59;;;;;;;;;;;9.00;99.90;;;;;;5049951;28;19917;-76
2024/02/03 05:09:25;;;;;;;;;;;9.00;99.90;;;;;;5033563;28;19999;-76
2024/02/03 05:11:53;;;;;;;;;;;9.00;99.90;;;;;;5016927;28;19917;-76
2024/02/03 05:14:25;;;;;;;;;;;9.00;99.90;;;;;;5033753;28;19912;-75
2024/02/03 05:16:53;;;;;;;;;;;9.00;99.90;;;;;;5033893;28;19921;-75
2024/02/03 05:19:22;;;;;;;;;;;9.00;99.90;;;;;;5034018;28;19917;-75
2024/02/03 05:21:48;;;;;;;;;;;8.90;99.90;;;;;;5017098;28;19917;-75
2024/02/03 05:24:14;;;;;;;;;;;9.00;99.90;;;;;;5033456;28;20007;-76
2024/02/03 05:26:42;;;;;;;;;;;9.00;99.90;;;;;;5032860;28;19929;-75
2024/02/03 05:29:08;;;;;;;;;;;8.90;99.90;;;;;;5053390;28;19946;-75
2024/02/03 05:31:33;;;;;;;;;;;9.00;99.90;;;;;;5035610;28;19913;-75
2024/02/03 05:33:59;;;;;;;;;;;9.00;99.90;;;;;;5016195;28;20453;-75
2024/02/03 05:36:25;;;;;;;;;;;9.00;99.90;;;;;;5001292;28;20004;-75
2024/02/03 05:38:56;;;;;;;;;;;9.00;99.90;;;;;;5053005;28;19940;-75
2024/02/03 05:41:22;;;;;;;;;;;9.00;99.90;;;;;;5043774;28;20624;-77
2024/02/03 05:43:50;;;;;;;;;;;9.00;99.90;;;;;;5033153;28;19917;-75
2024/02/03 05:46:18;;;;;;;;;;;8.90;99.90;;;;;;5024447;28;20258;-76
2024/02/03 05:48:44;;;;;;;;;;;8.90;99.90;;;;;;5016409;28;19924;-74
2024/02/03 05:51:20;;;;;;;;;;;8.90;99.90;;;;;;5033340;28;19921;-75
2024/02/03 05:53:49;;;;;;;;;;;8.80;99.90;;;;;;5043370;28;19992;-75
2024/02/03 05:56:15;;;;;;;;;;;9.00;99.90;;;;;;5035225;28;19982;-74
2024/02/03 05:58:44;;;;;;;;;;;9.00;99.90;;;;;;5019995;28;19944;-76
2024/02/03 06:01:17;;;;;;;;;;;8.90;99.90;;;;;;5037157;28;19966;-75
2024/02/03 06:03:43;;;;;;;;;;;8.90;99.90;;;;;;5036590;28;20337;-75
2024/02/03 06:06:17;;;;;;;;;;;9.00;99.90;;;;;;5036414;28;20024;-75
2024/02/03 06:08:43;;;;;;;;;;;9.00;99.90;;;;;;5037370;28;19917;-75
2024/02/03 06:11:09;;;;;;;;;;;8.90;99.90;;;;;;5036700;28;19952;-75
2024/02/03 06:13:35;;;;;;;;;;;9.00;99.90;;;;;;5036049;28;20420;-74
2024/02/03 06:16:02;;;;;;;;;;;9.00;99.90;;;;;;5019915;28;19917;-76
2024/02/03 06:18:34;;;;;;;;;;;8.90;99.90;;;;;;5020658;28;20692;-75
2024/02/03 06:21:04;;;;;;;;;;;9.00;99.90;;;;;;5020251;28;19924;-75
2024/02/03 06:23:36;;;;;;;;;;;9.00;99.90;;;;;;5041053;28;20007;-74
2024/02/03 06:26:02;;;;;;;;;;;9.00;99.90;;;;;;5056474;28;19947;-75
2024/02/03 06:28:27;;;;;;;;;;;9.00;99.90;;;;;;5044163;28;20226;-75
2024/02/03 06:30:53;;;;;;;;;;;9.00;99.90;;;;;;5031867;28;19924;-75
2024/02/03 06:33:22;;;;;;;;;;;9.00;99.90;;;;;;5043848;28;19921;-75
2024/02/03 06:35:48;;;;;;;;;;;9.00;99.90;;;;;;5035784;28;20241;-76
2024/02/03 06:38:14;;;;;;;;;;;9.00;99.90;;;;;;5027617;28;19923;-75
2024/02/03 06:40:42;;;;;;;;;;;9.00;99.90;;;;;;5035526;28;19917;-75
2024/02/03 06:43:08;;;;;;;;;;;9.00;99.90;;;;;;5021804;28;19950;-75
2024/02/03 06:45:34;;;;;;;;;;;9.00;99.90;;;;;;5026889;28;19921;-76
2024/02/03 06:48:00;;;;;;;;;;;9.00;99.90;;;;;;5016155;28;19917;-75
2024/02/03 06:50:26;;;;;;;;;;;9.00;99.90;;;;;;5010356;28;19920;-76
2024/02/03 06:52:51;;;;;;;;;;;9.00;99.90;;;;;;5035528;28;19976;-75
2024/02/03 06:55:17;;;;;;;;;;;9.00;99.90;;;;;;5039490;28;19919;-76
2024/02/03 06:57:43;;;;;;;;;;;9.00;99.90;;;;;;5040884;28;20018;-76
2024/02/03 07:00:10;;;;;;;;;;;9.00;99.90;;;;;;5049667;28;19917;-76
2024/02/03 07:02:35;;;;;;;;;;;9.10;99.90;;;;;;5046976;28;19917;-75
2024/02/03 07:05:01;;;;;;;;;;;9.00;99.90;;;;;;5035331;28;20099;-76
2024/02/03 07:07:27;;;;;;;;;;;9.00;99.90;;;;;;5037919;28;20000;-76
2024/02/03 07:09:58;;;;;;;;;;;9.00;99.90;;;;;;5035242;28;19917;-76
2024/02/03 07:12:30;;;;;;;;;;;9.10;99.90;;;;;;5035495;28;19913;-75
2024/02/03 07:14:56;;;;;;;;;;;9.10;99.90;;;;;;5037142;28;20545;-76
2024/02/03 07:17:21;;;;;;;;;;;9.00;99.90;;;;;;5026710;28;19920;-75
2024/02/03 07:19:47;;;;;;;;;;;9.00;99.90;;;;;;5017921;28;19992;-75
2024/02/03 07:22:13;;;;;;;;;;;9.10;99.90;;;;;;5034724;28;19975;-76
2024/02/03 07:24:39;;;;;;;;;;;9.00;99.90;;;;;;5018152;28;19947;-76
2024/02/03 07:27:05;;;;;;;;;;;9.00;99.90;;;;;;5029206;28;19984;-75
2024/02/03 07:29:31;;;;;;;;;;;9.00;99.90;;;;;;5031545;28;20357;-76
2024/02/03 07:32:00;;;;;;;;;;;9.00;99.90;;;;;;5032684;28;19914;-76
2024/02/03 07:34:26;;;;;;;;;;;9.00;99.90;;;;;;5015313;28;19924;-76
2024/02/03 07:36:52;;;;;;;;;;;9.00;99.90;;;;;;5007407;28;20636;-77
2024/02/03 07:39:18;;;;;;;;;;;9.10;99.90;;;;;;5035370;28;19943;-76
2024/02/03 07:41:44;;;;;;;;;;;9.00;99.90;;;;;;5034794;28;19948;-76
2024/02/03 07:44:11;;;;;;;;;;;9.10;99.90;;;;;;5034897;28;19917;-75
2024/02/03 07:46:37;;;;;;;;;;;9.00;99.90;;;;;;5035478;28;19978;-75
2024/02/03 07:49:04;;;;;;;;;;;9.10;99.90;;;;;;5035328;28;20237;-75
2024/02/03 07:51:30;;;;;;;;;;;9.10;99.90;;;;;;5002399;28;19917;-75
2024/02/03 07:53:56;;;;;;;;;;;9.10;99.90;;;;;;5035077;28;19924;-75
2024/02/03 07:56:22;;;;;;;;;;;9.10;99.90;;;;;;5035102;28;19917;-75
2024/02/03 07:58:48;;;;;;;;;;;9.10;99.90;;;;;;5034717;28;19952;-76
2024/02/03 08:01:13;;;;;;;;;;;9.10;99.90;;;;;;5018504;28;19913;-76
2024/02/03 08:03:39;;;;;;;;;;;9.10;99.90;;;;;;5029623;28;20022;-76
2024/02/03 08:06:06;;;;;;;;;;;9.20;99.90;;;;;;5036719;28;19928;-76
2024/02/03 08:08:32;;;;;;;;;;;9.20;99.90;;;;;;5053910;28;19920;-76
2024/02/03 08:11:00;;;;;;;;;;;9.20;99.90;;;;;;5053360;28;19920;-77
2024/02/03 08:13:26;;;;;;;;;;;9.20;99.90;;;;;;5035281;28;19917;-77
2024/02/03 08:15:51;;;;;;;;;;;9.20;99.90;;;;;;5014313;28;19929;-76
2024/02/03 08:18:17;;;;;;;;;;;9.20;99.90;;;;;;5024814;28;19995;-76
2024/02/03 08:20:43;;;;;;;;;;;9.20;99.90;;;;;;5053602;28;20264;-75
2024/02/03 08:23:09;;;;;;;;;;;9.30;99.90;;;;;;5019187;28;20253;-76
2024/02/03 08:25:35;;;;;;;;;;;9.30;99.90;;;;;;5033191;28;20258;-75
2024/02/03 08:28:02;;;;;;;;;;;9.20;99.90;;;;;;5032952;28;19933;-76
2024/02/03 08:30:31;;;;;;;;;;;9.30;99.90;;;;;;5041197;28;19913;-76
2024/02/03 08:32:56;;;;;;;;;;;9.30;99.90;;;;;;5047689;28;19924;-80
2024/02/03 08:35:23;;;;;;;;;;;9.30;99.90;;;;;;5021841;28;19917;-80
2024/02/03 08:37:48;;;;;;;;;;;9.30;99.90;;;;;;5023251;28;19970;-80
2024/02/03 08:40:18;;;;;;;;;;;9.30;99.90;;;;;;5029096;28;19925;-79
2024/02/03 08:42:52;;;;;;;;;;;9.30;99.90;;;;;;5002011;28;19916;-80
2024/02/03 08:45:18;;;;;;;;;;;9.30;99.90;;;;;;5023483;28;19931;-79
2024/02/03 08:47:46;;;;;;;;;;;9.40;99.90;;;;;;5001455;28;19913;-79
2024/02/03 08:50:13;;;;;;;;;;;9.40;99.90;;;;;;5017505;28;19924;-79
2024/02/03 08:52:39;;;;;;;;;;;9.40;99.90;;;;;;5033749;28;19917;-80
2024/02/03 08:55:05;;;;;;;;;;;9.40;99.90;;;;;;5001281;28;19928;-78
2024/02/03 08:57:31;;;;;;;;;;;9.40;99.90;;;;;;5033193;28;19917;-79
2024/02/03 08:59:56;;;;;;;;;;;9.40;99.90;;;;;;5025994;28;19916;-79
2024/02/03 09:02:22;;;;;;;;;;;9.40;99.90;;;;;;5025981;28;19913;-79
2024/02/03 09:04:47;;;;;;;;;;;9.50;99.90;;;;;;5050688;28;19919;-79
2024/02/03 09:07:13;;;;;;;;;;;9.40;99.90;;;;;;5053958;28;19920;-80
2024/02/03 09:09:39;;;;;;;;;;;9.40;99.90;;;;;;5016520;28;19920;-78
2024/02/03 09:12:05;;;;;;;;;;;9.50;99.90;;;;;;5012720;28;20008;-81
2024/02/03 09:14:30;;;;;;;;;;;9.50;99.90;;;;;;5017335;28;20008;-79
2024/02/03 09:16:56;;;;;;;;;;;9.50;99.90;;;;;;4994868;28;19921;-80
2024/02/03 09:19:21;;;;;;;;;;;9.50;99.90;;;;;;5011824;28;19959;-79
2024/02/03 09:21:49;;;;;;;;;;;9.50;99.90;;;;;;5021488;28;19913;-80
2024/02/03 09:24:15;;;;;;;;;;;9.50;99.90;;;;;;5046175;28;19913;-79
2024/02/03 09:26:41;;;;;;;;;;;9.50;99.90;;;;;;5031884;28;19920;-79
2024/02/03 09:29:07;;;;;;;;;;;9.50;99.90;;;;;;5023986;28;19905;-80
2024/02/03 09:31:33;;;;;;;;;;;9.60;99.90;;;;;;5041436;28;19908;-80
2024/02/03 09:34:05;;;;;;;;;;;9.70;99.90;;;;;;5041598;28;19928;-80
2024/02/03 09:36:45;;;;;;;;;;;9.80;99.90;;;;;;5007589;28;19917;-80
2024/02/03 09:39:36;;;;;;;;;;;9.80;99.90;;;;;;5048192;28;19924;-79
2024/02/03 09:42:44;;;;;;;;;;;9.80;99.90;;;;;;5023000;28;19959;-79
2024/02/03 09:45:16;;;;;;;;;;;9.90;99.90;;;;;;5001551;28;20000;-76
2024/02/03 09:47:42;;;;;;;;;;;10.00;99.90;;;;;;5030377;28;19940;-76
2024/02/03 09:50:08;;;;;;;;;;;9.80;99.90;;;;;;5018568;28;19917;-76
2024/02/03 09:52:34;;;;;;;;;;;9.70;99.90;;;;;;5000848;28;19917;-76
2024/02/03 09:55:03;;;;;;;;;;;9.70;99.90;;;;;;5019728;28;20394;-75
2024/02/03 09:57:29;;;;;;;;;;;9.70;99.90;;;;;;5036348;28;19960;-76
2024/02/03 09:59:57;;;;;;;;;;;9.70;99.90;;;;;;5018862;28;19913;-75
2024/02/03 10:02:27;;;;;;;;;;;9.70;99.90;;;;;;5036535;28;20276;-76
2024/02/03 10:04:53;;;;;;;;;;;9.70;99.90;;;;;;5011962;28;19923;-76
2024/02/03 10:07:19;;;;;;;;;;;9.60;99.90;;;;;;5043300;28;20011;-75
2024/02/03 10:09:47;;;;;;;;;;;9.60;99.90;;;;;;5027648;28;19914;-75
2024/02/03 10:12:20;;;;;;;;;;;9.60;99.90;;;;;;5002247;28;20278;-75
2024/02/03 10:14:45;;;;;;;;;;;9.60;99.90;;;;;;5016067;28;19921;-75
2024/02/03 10:17:18;;;;;;;;;;;9.60;99.90;;;;;;5025686;28;20044;-76
2024/02/03 10:19:46;;;;;;;;;;;9.60;99.90;;;;;;4987974;28;20004;-76
2024/02/03 10:22:12;;;;;;;;;;;9.60;99.90;;;;;;5029231;28;19914;-76
2024/02/03 10:24:40;;;;;;;;;;;9.60;99.90;;;;;;5036198;28;19947;-76
2024/02/03 10:27:06;;;;;;;;;;;9.60;99.90;;;;;;5026222;28;19925;-76
2024/02/03 10:29:33;;;;;;;;;;;9.60;99.90;;;;;;5053101;28;20612;-75
2024/02/03 10:31:59;;;;;;;;;;;9.60;99.90;;;;;;5055309;28;19946;-76
2024/02/03 10:34:26;;;;;;;;;;;9.60;99.90;;;;;;5036013;28;20242;-76
2024/02/03 10:36:52;;;;;;;;;;;9.60;99.90;;;;;;5031607;28;19925;-75
2024/02/03 10:39:17;;;;;;;;;;;9.60;99.90;;;;;;5017996;28;19914;-75
2024/02/03 10:41:43;;;;;;;;;;;9.60;99.90;;;;;;5030209;28;19916;-75
2024/02/03 10:44:09;;;;;;;;;;;9.50;99.90;;;;;;5019173;28;20219;-75
2024/02/03 10:46:36;;;;;;;;;;;9.50;99.90;;;;;;5035746;28;19929;-76
2024/02/03 10:49:02;;;;;;;;;;;9.50;99.90;;;;;;5035551;28;19924;-76
2024/02/03 10:51:30;;;;;;;;;;;9.60;99.90;;;;;;5051911;28;19912;-76
2024/02/03 10:54:01;;;;;;;;;;;9.60;99.90;;;;;;5008519;28;19921;-75
2024/02/03 10:56:28;;;;;;;;;;;9.60;99.90;;;;;;5047991;28;20033;-75
2024/02/03 10:58:53;;;;;;;;;;;9.60;99.90;;;;;;5038718;28;19924;-75
2024/02/03 11:01:21;;;;;;;;;;;9.60;99.90;;;;;;5035518;28;19917;-75
2024/02/03 11:03:47;;;;;;;;;;;9.60;99.90;;;;;;5027049;28;19995;-75
2024/02/03 11:06:13;;;;;;;;;;;9.60;99.90;;;;;;5043438;28;19917;-75
2024/02/03 11:08:43;;;;;;;;;;;9.70;99.90;;;;;;5018402;28;19914;-76
2024/02/03 11:11:08;;;;;;;;;;;9.60;99.90;;;;;;5015747;28;19913;-75
2024/02/03 11:13:37;;;;;;;;;;;9.70;99.90;;;;;;5014840;28;20272;-75
2024/02/03 11:16:03;;;;;;;;;;;9.60;99.90;;;;;;5041165;28;19924;-75
2024/02/03 11:18:37;;;;;;;;;;;9.60;99.90;;;;;;5035224;28;20602;-75
2024/02/03 11:21:06;;;;;;;;;;;9.60;99.90;;;;;;5035083;28;19916;-75
2024/02/03 11:23:33;;;;;;;;;;;9.70;99.90;;;;;;5035436;28;19919;-75
2024/02/03 11:25:59;;;;;;;;;;;9.70;99.90;;;;;;5034736;28;20357;-75
2024/02/03 11:28:25;;;;;;;;;;;9.70;99.90;;;;;;5035283;28;19917;-75
2024/02/03 11:31:11;;;;;;;;;;;9.70;99.90;;;;;;5019299;28;19924;-75
2024/02/03 11:33:43;;;;;;;;;;;9.70;99.90;;;;;;5035328;28;19913;-76
2024/02/03 11:36:09;;;;;;;;;;;9.80;99.90;;;;;;5064877;28;19917;-75
2024/02/03 11:38:42;;;;;;;;;;;9.80;99.90;;;;;;5005544;28;20313;-75
2024/02/03 11:41:08;;;;;;;;;;;9.80;99.90;;;;;;5051921;28;19917;-74
2024/02/03 11:43:34;;;;;;;;;;;9.80;99.90;;;;;;5017180;28;19917;-74
2024/02/03 11:46:02;;;;;;;;;;;9.80;99.90;;;;;;5018382;28;19925;-74
2024/02/03 11:48:29;;;;;;;;;;;9.80;99.90;;;;;;5031872;28;19928;-75
2024/02/03 11:50:54;;;;;;;;;;;9.90;99.90;;;;;;5054348;28;19917;-75
2024/02/03 11:53:22;;;;;;;;;;;9.90;99.90;;;;;;5024041;28;19957;-75
2024/02/03 11:55:47;;;;;;;;;;;9.90;99.90;;;;;;5024072;28;19913;-76
2024/02/03 11:58:13;;;;;;;;;;;9.90;99.90;;;;;;5048920;28;20333;-75
2024/02/03 12:00:38;;;;;;;;;;;9.90;99.90;;;;;;5005973;28;20245;-75
2024/02/03 12:03:04;;;;;;;;;;;10.00;99.90;;;;;;5013911;28;19913;-75
2024/02/03 12:05:30;;;;;;;;;;;10.00;99.90;;;;;;5015740;28;19917;-76
2024/02/03 12:07:56;;;;;;;;;;;10.00;99.90;;;;;;5034449;28;19917;-76
2024/02/03 12:10:21;;;;;;;;;;;10.10;99.90;;;;;;5017648;28;19992;-77
2024/02/03 12:12:47;;;;;;;;;;;10.10;99.90;;;;;;5023268;28;19917;-77
2024/02/03 12:15:13;;;;;;;;;;;10.10;99.90;;;;;;5007378;28;20061;-76
2024/02/03 12:17:47;;;;;;;;;;;10.10;99.90;;;;;;5025941;28;20253;-76
2024/02/03 12:20:21;;;;;;;;;;;10.20;99.90;;;;;;5055604;28;20321;-76
2024/02/03 12:22:46;;;;;;;;;;;10.10;99.90;;;;;;5052317;28;19923;-76
2024/02/03 12:25:12;;;;;;;;;;;10.20;99.90;;;;;;5033246;28;19916;-76
2024/02/03 12:27:38;;;;;;;;;;;10.20;99.90;;;;;;5033597;28;19964;-76
2024/02/03 12:30:13;;;;;;;;;;;10.20;99.90;;;;;;5022926;28;19923;-76
2024/02/03 12:32:39;;;;;;;;;;;10.10;99.90;;;;;;5036488;28;19917;-77
2024/02/03 12:35:04;;;;;;;;;;;10.10;99.90;;;;;;5014503;28;19919;-75
2024/02/03 12:37:30;;;;;;;;;;;10.10;99.90;;;;;;5036656;28;19920;-75
2024/02/03 12:39:56;;;;;;;;;;;10.10;99.90;;;;;;5053459;28;20560;-76
2024/02/03 12:42:27;;;;;;;;;;;10.10;99.90;;;;;;5033975;28;19921;-77
2024/02/03 12:44:58;;;;;;;;;;;10.10;99.90;;;;;;5016997;28;19913;-76
2024/02/03 12:47:24;;;;;;;;;;;10.10;99.90;;;;;;5016041;28;20015;-77
2024/02/03 12:49:50;;;;;;;;;;;10.10;99.90;;;;;;5034028;28;19917;-76
2024/02/03 12:52:18;;;;;;;;;;;10.10;99.90;;;;;;4981795;28;20308;-76
2024/02/03 12:54:45;;;;;;;;;;;10.10;99.90;;;;;;5021011;28;19920;-77
2024/02/03 12:57:13;;;;;;;;;;;10.10;99.90;;;;;;5050846;28;19931;-76
2024/02/03 12:59:39;;;;;;;;;;;10.10;99.90;;;;;;5032941;28;19913;-76
2024/02/03 13:02:05;;;;;;;;;;;10.20;99.90;;;;;;5017073;28;19994;-76
2024/02/03 13:04:49;;;;;;;;;;;10.20;99.90;;;;;;5030103;28;19929;-76
2024/02/03 13:07:25;;;;;;;;;;;10.20;99.90;;;;;;5057725;28;19927;-76
2024/02/03 13:09:51;;;;;;;;;;;10.20;99.90;;;;;;5057738;28;19931;-77
2024/02/03 13:12:17;;;;;;;;;;;10.30;99.90;;;;;;5034315;28;19920;-76
2024/02/03 13:14:45;;;;;;;;;;;10.30;99.90;;;;;;5019792;28;19912;-77
2024/02/03 13:17:12;;;;;;;;;;;10.30;99.90;;;;;;5020548;28;19928;-77
2024/02/03 13:19:38;;;;;;;;;;;10.30;99.90;;;;;;5036415;28;19917;-76
2024/02/03 13:22:04;;;;;;;;;;;10.30;99.90;;;;;;5020043;28;19917;-77
2024/02/03 13:24:30;;;;;;;;;;;10.40;99.90;;;;;;5019591;28;20334;-76
2024/02/03 13:26:56;;;;;;;;;;;10.40;99.90;;;;;;5030820;28;19971;-76
2024/02/03 13:29:22;;;;;;;;;;;10.40;99.90;;;;;;5031840;28;19983;-77
2024/02/03 13:31:47;;;;;;;;;;;10.50;99.90;;;;;;5044492;28;19924;-76
2024/02/03 13:34:13;;;;;;;;;;;10.40;99.90;;;;;;5035512;28;20334;-76
2024/02/03 13:36:39;;;;;;;;;;;10.40;99.90;;;;;;5031574;28;20337;-77
2024/02/03 13:39:05;;;;;;;;;;;10.50;99.90;;;;;;5055823;28;19958;-77
2024/02/03 13:41:31;;;;;;;;;;;10.50;99.90;;;;;;5039990;28;19921;-76
2024/02/03 13:43:56;;;;;;;;;;;10.50;99.90;;;;;;5063422;28;19924;-76
2024/02/03 13:46:22;;;;;;;;;;;10.50;99.90;;;;;;5033908;28;20327;-77
2024/02/03 13:48:48;;;;;;;;;;;10.50;99.90;;;;;;5035018;28;20271;-77
2024/02/03 13:51:13;;;;;;;;;;;10.60;99.90;;;;;;5041201;28;19918;-77
2024/02/03 13:53:39;;;;;;;;;;;10.60;99.90;;;;;;5045274;28;20335;-77
2024/02/03 13:56:05;;;;;;;;;;;10.60;99.90;;;;;;5047775;28;19955;-77
2024/02/03 13:58:31;;;;;;;;;;;10.70;99.90;;;;;;5020859;28;20356;-77
2024/02/03 14:00:57;;;;;;;;;;;10.70;99.90;;;;;;5041697;28;19917;-78
2024/02/03 14:03:25;;;;;;;;;;;10.70;99.90;;;;;;5029208;28;19913;-77
2024/02/03 14:05:56;;;;;;;;;;;10.70;99.90;;;;;;5034720;28;19926;-77
2024/02/03 14:08:22;;;;;;;;;;;10.70;99.90;;;;;;5046156;28;19917;-77
2024/02/03 14:10:48;;;;;;;;;;;10.70;99.90;;;;;;5038762;28;19948;-77
2024/02/03 14:13:13;;;;;;;;;;;10.70;99.90;;;;;;5039478;28;19913;-78
2024/02/03 14:15:44;;;;;;;;;;;10.70;99.90;;;;;;5016803;28;20322;-77
2024/02/03 14:18:10;;;;;;;;;;;10.70;99.90;;;;;;5036959;28;19917;-78
2024/02/03 14:20:40;;;;;;;;;;;10.70;99.90;;;;;;5025316;28;19947;-78
2024/02/03 14:23:06;;;;;;;;;;;10.80;99.90;;;;;;5032196;28;20330;-77
2024/02/03 14:25:37;;;;;;;;;;;10.70;99.90;;;;;;5032140;28;19920;-77
2024/02/03 14:28:06;;;;;;;;;;;10.80;99.90;;;;;;5044827;28;19921;-77
2024/02/03 14:30:34;;;;;;;;;;;10.80;99.90;;;;;;5035076;28;19917;-77